sensor_id;sensor_type;location;lat;lon;timestamp;P1;durP1;ratioP1;P2;durP2;ratioP2
17024;SDS011;8629;42.496;25.620;2023-03-24T00:01:57;9.40;;;8.23;;
17024;SDS011;8629;42.496;25.620;2023-03-24T00:04:24;9.63;;;8.67;;
17024;SDS011;8629;42.496;25.620;2023-03-24T00:06:53;12.77;;;10.47;;
17024;SDS011;8629;42.496;25.620;2023-03-24T00:09:20;10.27;;;9.13;;
17024;SDS011;8629;42.496;25.620;2023-03-24T00:11:47;13.97;;;10.83;;
17024;SDS011;8629;42.496;25.620;2023-03-24T00:14:15;15.93;;;10.83;;
17024;SDS011;8629;42.496;25.620;2023-03-24T00:16:44;12.50;;;10.27;;
17024;SDS011;8629;42.496;25.620;2023-03-24T00:19:10;12.83;;;10.63;;
17024;SDS011;8629;42.496;25.620;2023-03-24T00:21:39;14.90;;;10.00;;
17024;SDS011;8629;42.496;25.620;2023-03-24T00:24:07;11.40;;;9.03;;
17024;SDS011;8629;42.496;25.620;2023-03-24T00:26:35;10.03;;;7.87;;
17024;SDS011;8629;42.496;25.620;2023-03-24T00:29:03;10.13;;;9.03;;
17024;SDS011;8629;42.496;25.620;2023-03-24T00:31:30;8.90;;;7.87;;
17024;SDS011;8629;42.496;25.620;2023-03-24T00:33:59;11.47;;;8.20;;
17024;SDS011;8629;42.496;25.620;2023-03-24T00:36:27;11.87;;;8.53;;
17024;SDS011;8629;42.496;25.620;2023-03-24T00:38:54;9.30;;;8.23;;
17024;SDS011;8629;42.496;25.620;2023-03-24T00:41:22;10.20;;;7.93;;
17024;SDS011;8629;42.496;25.620;2023-03-24T00:43:52;11.00;;;9.10;;
17024;SDS011;8629;42.496;25.620;2023-03-24T00:46:20;9.60;;;7.90;;
17024;SDS011;8629;42.496;25.620;2023-03-24T00:48:57;9.13;;;8.07;;
17024;SDS011;8629;42.496;25.620;2023-03-24T00:51:30;9.43;;;7.73;;
17024;SDS011;8629;42.496;25.620;2023-03-24T00:53:57;10.60;;;8.30;;
17024;SDS011;8629;42.496;25.620;2023-03-24T00:56:26;13.33;;;8.93;;
17024;SDS011;8629;42.496;25.620;2023-03-24T00:58:55;9.97;;;8.60;;
17024;SDS011;8629;42.496;25.620;2023-03-24T01:01:23;9.57;;;7.97;;
17024;SDS011;8629;42.496;25.620;2023-03-24T01:03:52;8.77;;;7.87;;
17024;SDS011;8629;42.496;25.620;2023-03-24T01:06:22;12.10;;;8.07;;
17024;SDS011;8629;42.496;25.620;2023-03-24T01:08:49;8.90;;;7.37;;
17024;SDS011;8629;42.496;25.620;2023-03-24T01:11:18;8.37;;;7.07;;
17024;SDS011;8629;42.496;25.620;2023-03-24T01:13:48;8.67;;;7.20;;
17024;SDS011;8629;42.496;25.620;2023-03-24T01:16:15;9.80;;;7.97;;
17024;SDS011;8629;42.496;25.620;2023-03-24T01:18:42;10.03;;;8.23;;
17024;SDS011;8629;42.496;25.620;2023-03-24T01:21:10;8.13;;;7.10;;
17024;SDS011;8629;42.496;25.620;2023-03-24T01:23:39;9.13;;;8.17;;
17024;SDS011;8629;42.496;25.620;2023-03-24T01:26:07;8.27;;;7.13;;
17024;SDS011;8629;42.496;25.620;2023-03-24T01:28:35;8.63;;;7.57;;
17024;SDS011;8629;42.496;25.620;2023-03-24T01:31:05;10.73;;;8.20;;
17024;SDS011;8629;42.496;25.620;2023-03-24T01:33:33;9.23;;;7.83;;
17024;SDS011;8629;42.496;25.620;2023-03-24T01:35:59;8.47;;;7.63;;
17024;SDS011;8629;42.496;25.620;2023-03-24T01:38:26;8.90;;;6.80;;
17024;SDS011;8629;42.496;25.620;2023-03-24T01:40:55;9.63;;;6.93;;
17024;SDS011;8629;42.496;25.620;2023-03-24T01:43:22;7.60;;;6.60;;
17024;SDS011;8629;42.496;25.620;2023-03-24T01:46:02;9.30;;;7.97;;
17024;SDS011;8629;42.496;25.620;2023-03-24T01:48:40;10.57;;;7.60;;
17024;SDS011;8629;42.496;25.620;2023-03-24T01:51:10;11.40;;;7.73;;
17024;SDS011;8629;42.496;25.620;2023-03-24T01:53:41;7.60;;;6.80;;
17024;SDS011;8629;42.496;25.620;2023-03-24T01:56:12;9.23;;;7.17;;
17024;SDS011;8629;42.496;25.620;2023-03-24T01:58:40;11.17;;;8.40;;
17024;SDS011;8629;42.496;25.620;2023-03-24T02:01:11;8.53;;;6.77;;
17024;SDS011;8629;42.496;25.620;2023-03-24T02:03:38;10.47;;;8.07;;
17024;SDS011;8629;42.496;25.620;2023-03-24T02:06:06;9.83;;;8.37;;
17024;SDS011;8629;42.496;25.620;2023-03-24T02:08:35;10.63;;;8.47;;
17024;SDS011;8629;42.496;25.620;2023-03-24T02:11:04;11.10;;;8.37;;
17024;SDS011;8629;42.496;25.620;2023-03-24T02:13:33;9.70;;;7.20;;
17024;SDS011;8629;42.496;25.620;2023-03-24T02:16:03;9.43;;;7.93;;
17024;SDS011;8629;42.496;25.620;2023-03-24T02:18:39;7.87;;;7.07;;
17024;SDS011;8629;42.496;25.620;2023-03-24T02:21:25;10.77;;;8.47;;
17024;SDS011;8629;42.496;25.620;2023-03-24T02:24:17;8.37;;;7.43;;
17024;SDS011;8629;42.496;25.620;2023-03-24T02:26:56;9.43;;;7.57;;
17024;SDS011;8629;42.496;25.620;2023-03-24T02:32:42;12.83;;;8.13;;
17024;SDS011;8629;42.496;25.620;2023-03-24T02:35:52;9.43;;;8.27;;
17024;SDS011;8629;42.496;25.620;2023-03-24T02:38:45;11.37;;;8.33;;
17024;SDS011;8629;42.496;25.620;2023-03-24T02:41:23;11.27;;;8.60;;
17024;SDS011;8629;42.496;25.620;2023-03-24T02:43:56;10.93;;;8.07;;
17024;SDS011;8629;42.496;25.620;2023-03-24T02:46:28;12.10;;;9.97;;
17024;SDS011;8629;42.496;25.620;2023-03-24T02:49:06;17.27;;;14.30;;
17024;SDS011;8629;42.496;25.620;2023-03-24T02:51:38;18.93;;;13.87;;
17024;SDS011;8629;42.496;25.620;2023-03-24T02:54:10;16.07;;;10.40;;
17024;SDS011;8629;42.496;25.620;2023-03-24T02:56:41;11.90;;;9.07;;
17024;SDS011;8629;42.496;25.620;2023-03-24T02:59:10;11.40;;;9.37;;
17024;SDS011;8629;42.496;25.620;2023-03-24T03:01:43;12.13;;;9.93;;
17024;SDS011;8629;42.496;25.620;2023-03-24T03:04:19;9.60;;;8.00;;
17024;SDS011;8629;42.496;25.620;2023-03-24T03:06:48;9.40;;;8.40;;
17024;SDS011;8629;42.496;25.620;2023-03-24T03:09:17;9.90;;;8.83;;
17024;SDS011;8629;42.496;25.620;2023-03-24T03:11:47;13.00;;;8.87;;
17024;SDS011;8629;42.496;25.620;2023-03-24T03:14:17;11.03;;;8.70;;
17024;SDS011;8629;42.496;25.620;2023-03-24T03:16:47;11.07;;;8.17;;
17024;SDS011;8629;42.496;25.620;2023-03-24T03:19:18;9.73;;;8.00;;
17024;SDS011;8629;42.496;25.620;2023-03-24T03:21:47;10.70;;;8.50;;
17024;SDS011;8629;42.496;25.620;2023-03-24T03:24:16;9.30;;;7.90;;
17024;SDS011;8629;42.496;25.620;2023-03-24T03:26:52;10.63;;;8.97;;
17024;SDS011;8629;42.496;25.620;2023-03-24T03:29:21;7.80;;;7.03;;
17024;SDS011;8629;42.496;25.620;2023-03-24T03:31:52;8.40;;;7.37;;
17024;SDS011;8629;42.496;25.620;2023-03-24T03:34:26;10.00;;;8.13;;
17024;SDS011;8629;42.496;25.620;2023-03-24T03:36:59;10.10;;;8.40;;
17024;SDS011;8629;42.496;25.620;2023-03-24T03:39:29;8.37;;;7.17;;
17024;SDS011;8629;42.496;25.620;2023-03-24T03:41:59;8.80;;;7.67;;
17024;SDS011;8629;42.496;25.620;2023-03-24T03:44:27;9.73;;;7.63;;
17024;SDS011;8629;42.496;25.620;2023-03-24T03:46:53;9.50;;;8.60;;
17024;SDS011;8629;42.496;25.620;2023-03-24T03:49:21;8.90;;;8.00;;
17024;SDS011;8629;42.496;25.620;2023-03-24T03:51:49;8.37;;;7.53;;
17024;SDS011;8629;42.496;25.620;2023-03-24T03:54:18;9.67;;;7.63;;
17024;SDS011;8629;42.496;25.620;2023-03-24T03:56:45;12.73;;;7.90;;
17024;SDS011;8629;42.496;25.620;2023-03-24T03:59:26;9.03;;;7.50;;
17024;SDS011;8629;42.496;25.620;2023-03-24T04:01:53;8.87;;;7.83;;
17024;SDS011;8629;42.496;25.620;2023-03-24T04:04:28;9.50;;;8.03;;
17024;SDS011;8629;42.496;25.620;2023-03-24T04:07:07;8.57;;;7.07;;
17024;SDS011;8629;42.496;25.620;2023-03-24T04:09:40;10.70;;;8.30;;
17024;SDS011;8629;42.496;25.620;2023-03-24T04:12:17;8.67;;;7.67;;
17024;SDS011;8629;42.496;25.620;2023-03-24T04:17:50;9.87;;;8.47;;
17024;SDS011;8629;42.496;25.620;2023-03-24T04:20:36;9.60;;;8.17;;
17024;SDS011;8629;42.496;25.620;2023-03-24T04:23:12;10.17;;;8.03;;
17024;SDS011;8629;42.496;25.620;2023-03-24T04:25:47;11.30;;;8.63;;
17024;SDS011;8629;42.496;25.620;2023-03-24T04:28:21;9.97;;;8.43;;
17024;SDS011;8629;42.496;25.620;2023-03-24T04:30:52;11.00;;;8.77;;
17024;SDS011;8629;42.496;25.620;2023-03-24T04:33:23;9.23;;;8.27;;
17024;SDS011;8629;42.496;25.620;2023-03-24T04:35:54;9.50;;;8.23;;
17024;SDS011;8629;42.496;25.620;2023-03-24T04:38:30;11.50;;;7.17;;
17024;SDS011;8629;42.496;25.620;2023-03-24T04:41:00;18.10;;;13.60;;
17024;SDS011;8629;42.496;25.620;2023-03-24T04:43:27;13.90;;;10.60;;
17024;SDS011;8629;42.496;25.620;2023-03-24T04:46:02;10.53;;;9.17;;
17024;SDS011;8629;42.496;25.620;2023-03-24T04:48:29;10.63;;;8.83;;
17024;SDS011;8629;42.496;25.620;2023-03-24T04:50:56;9.37;;;8.37;;
17024;SDS011;8629;42.496;25.620;2023-03-24T04:53:25;8.87;;;7.23;;
17024;SDS011;8629;42.496;25.620;2023-03-24T04:55:54;10.63;;;7.97;;
17024;SDS011;8629;42.496;25.620;2023-03-24T04:58:24;9.73;;;8.43;;
17024;SDS011;8629;42.496;25.620;2023-03-24T05:00:50;12.87;;;8.33;;
17024;SDS011;8629;42.496;25.620;2023-03-24T05:03:21;10.70;;;8.37;;
17024;SDS011;8629;42.496;25.620;2023-03-24T05:05:48;8.93;;;7.50;;
17024;SDS011;8629;42.496;25.620;2023-03-24T05:08:16;9.60;;;7.47;;
17024;SDS011;8629;42.496;25.620;2023-03-24T05:10:43;11.43;;;10.07;;
17024;SDS011;8629;42.496;25.620;2023-03-24T05:13:11;11.97;;;10.70;;
17024;SDS011;8629;42.496;25.620;2023-03-24T05:15:38;11.10;;;9.27;;
17024;SDS011;8629;42.496;25.620;2023-03-24T05:18:05;17.53;;;11.67;;
17024;SDS011;8629;42.496;25.620;2023-03-24T05:20:34;42.23;;;23.57;;
17024;SDS011;8629;42.496;25.620;2023-03-24T05:23:01;35.37;;;21.83;;
17024;SDS011;8629;42.496;25.620;2023-03-24T05:25:27;18.10;;;15.67;;
17024;SDS011;8629;42.496;25.620;2023-03-24T05:27:55;19.07;;;14.47;;
17024;SDS011;8629;42.496;25.620;2023-03-24T05:30:21;16.47;;;11.70;;
17024;SDS011;8629;42.496;25.620;2023-03-24T05:32:48;12.70;;;11.30;;
17024;SDS011;8629;42.496;25.620;2023-03-24T05:35:15;13.97;;;11.63;;
17024;SDS011;8629;42.496;25.620;2023-03-24T05:37:44;12.17;;;10.13;;
17024;SDS011;8629;42.496;25.620;2023-03-24T05:40:11;12.20;;;10.00;;
17024;SDS011;8629;42.496;25.620;2023-03-24T05:42:39;11.87;;;10.10;;
17024;SDS011;8629;42.496;25.620;2023-03-24T05:45:07;16.07;;;13.37;;
17024;SDS011;8629;42.496;25.620;2023-03-24T05:47:35;22.27;;;17.67;;
17024;SDS011;8629;42.496;25.620;2023-03-24T05:50:01;23.17;;;16.13;;
17024;SDS011;8629;42.496;25.620;2023-03-24T05:52:29;14.23;;;11.50;;
17024;SDS011;8629;42.496;25.620;2023-03-24T05:54:57;9.67;;;8.10;;
17024;SDS011;8629;42.496;25.620;2023-03-24T05:57:24;14.63;;;12.27;;
17024;SDS011;8629;42.496;25.620;2023-03-24T05:59:54;15.80;;;12.80;;
17024;SDS011;8629;42.496;25.620;2023-03-24T06:02:21;13.47;;;11.43;;
17024;SDS011;8629;42.496;25.620;2023-03-24T06:04:48;13.47;;;11.60;;
17024;SDS011;8629;42.496;25.620;2023-03-24T06:07:17;14.43;;;12.47;;
17024;SDS011;8629;42.496;25.620;2023-03-24T06:09:44;14.33;;;11.73;;
17024;SDS011;8629;42.496;25.620;2023-03-24T06:12:16;11.83;;;10.60;;
17024;SDS011;8629;42.496;25.620;2023-03-24T06:14:43;13.00;;;10.37;;
17024;SDS011;8629;42.496;25.620;2023-03-24T06:17:10;12.37;;;10.60;;
17024;SDS011;8629;42.496;25.620;2023-03-24T06:19:39;10.47;;;9.37;;
17024;SDS011;8629;42.496;25.620;2023-03-24T06:22:14;12.13;;;9.57;;
17024;SDS011;8629;42.496;25.620;2023-03-24T06:24:41;13.00;;;11.13;;
17024;SDS011;8629;42.496;25.620;2023-03-24T06:27:08;10.87;;;9.57;;
17024;SDS011;8629;42.496;25.620;2023-03-24T06:29:36;13.63;;;9.73;;
17024;SDS011;8629;42.496;25.620;2023-03-24T06:32:06;10.97;;;8.83;;
17024;SDS011;8629;42.496;25.620;2023-03-24T06:34:33;10.73;;;8.83;;
17024;SDS011;8629;42.496;25.620;2023-03-24T06:37:00;10.60;;;9.50;;
17024;SDS011;8629;42.496;25.620;2023-03-24T06:39:27;11.77;;;10.17;;
17024;SDS011;8629;42.496;25.620;2023-03-24T06:41:53;10.63;;;8.80;;
17024;SDS011;8629;42.496;25.620;2023-03-24T06:44:20;13.17;;;10.40;;
17024;SDS011;8629;42.496;25.620;2023-03-24T06:46:48;12.07;;;10.90;;
17024;SDS011;8629;42.496;25.620;2023-03-24T06:49:18;11.27;;;10.17;;
17024;SDS011;8629;42.496;25.620;2023-03-24T06:51:45;22.27;;;17.90;;
17024;SDS011;8629;42.496;25.620;2023-03-24T06:54:12;15.50;;;12.53;;
17024;SDS011;8629;42.496;25.620;2023-03-24T06:56:39;11.77;;;10.67;;
17024;SDS011;8629;42.496;25.620;2023-03-24T06:59:06;11.50;;;9.60;;
17024;SDS011;8629;42.496;25.620;2023-03-24T07:01:33;12.17;;;10.47;;
17024;SDS011;8629;42.496;25.620;2023-03-24T07:04:01;10.57;;;9.40;;
17024;SDS011;8629;42.496;25.620;2023-03-24T07:06:28;10.00;;;8.53;;
17024;SDS011;8629;42.496;25.620;2023-03-24T07:08:56;13.17;;;10.07;;
17024;SDS011;8629;42.496;25.620;2023-03-24T07:11:23;11.30;;;8.43;;
17024;SDS011;8629;42.496;25.620;2023-03-24T07:13:51;9.77;;;8.73;;
17024;SDS011;8629;42.496;25.620;2023-03-24T07:16:18;10.40;;;9.00;;
17024;SDS011;8629;42.496;25.620;2023-03-24T07:18:44;9.97;;;8.57;;
17024;SDS011;8629;42.496;25.620;2023-03-24T07:21:12;10.13;;;8.97;;
17024;SDS011;8629;42.496;25.620;2023-03-24T07:23:39;12.17;;;9.47;;
17024;SDS011;8629;42.496;25.620;2023-03-24T07:26:06;10.17;;;9.17;;
17024;SDS011;8629;42.496;25.620;2023-03-24T07:28:33;10.37;;;8.93;;
17024;SDS011;8629;42.496;25.620;2023-03-24T07:31:00;9.57;;;7.80;;
17024;SDS011;8629;42.496;25.620;2023-03-24T07:33:27;9.70;;;8.77;;
17024;SDS011;8629;42.496;25.620;2023-03-24T07:35:55;8.40;;;7.27;;
17024;SDS011;8629;42.496;25.620;2023-03-24T07:38:24;11.77;;;8.23;;
17024;SDS011;8629;42.496;25.620;2023-03-24T07:40:54;8.80;;;7.90;;
17024;SDS011;8629;42.496;25.620;2023-03-24T07:43:21;8.87;;;8.07;;
17024;SDS011;8629;42.496;25.620;2023-03-24T07:45:48;9.00;;;8.10;;
17024;SDS011;8629;42.496;25.620;2023-03-24T07:48:15;8.87;;;7.97;;
17024;SDS011;8629;42.496;25.620;2023-03-24T07:50:42;8.57;;;7.67;;
17024;SDS011;8629;42.496;25.620;2023-03-24T07:53:08;8.40;;;7.60;;
17024;SDS011;8629;42.496;25.620;2023-03-24T07:55:37;9.40;;;7.60;;
17024;SDS011;8629;42.496;25.620;2023-03-24T07:58:04;10.17;;;8.40;;
17024;SDS011;8629;42.496;25.620;2023-03-24T08:00:31;8.43;;;7.63;;
17024;SDS011;8629;42.496;25.620;2023-03-24T08:02:58;8.00;;;7.20;;
17024;SDS011;8629;42.496;25.620;2023-03-24T08:05:25;7.57;;;6.77;;
17024;SDS011;8629;42.496;25.620;2023-03-24T08:07:54;7.47;;;6.77;;
17024;SDS011;8629;42.496;25.620;2023-03-24T08:10:22;8.57;;;7.67;;
17024;SDS011;8629;42.496;25.620;2023-03-24T08:12:52;8.57;;;7.40;;
17024;SDS011;8629;42.496;25.620;2023-03-24T08:15:20;8.13;;;7.33;;
17024;SDS011;8629;42.496;25.620;2023-03-24T08:17:47;8.97;;;8.07;;
17024;SDS011;8629;42.496;25.620;2023-03-24T08:20:17;7.77;;;6.97;;
17024;SDS011;8629;42.496;25.620;2023-03-24T08:22:46;8.07;;;7.27;;
17024;SDS011;8629;42.496;25.620;2023-03-24T08:25:15;10.90;;;8.10;;
17024;SDS011;8629;42.496;25.620;2023-03-24T08:27:43;10.87;;;9.77;;
17024;SDS011;8629;42.496;25.620;2023-03-24T08:30:14;11.47;;;8.87;;
17024;SDS011;8629;42.496;25.620;2023-03-24T08:32:42;11.17;;;9.90;;
17024;SDS011;8629;42.496;25.620;2023-03-24T08:35:10;8.90;;;8.03;;
17024;SDS011;8629;42.496;25.620;2023-03-24T08:37:38;10.87;;;9.77;;
17024;SDS011;8629;42.496;25.620;2023-03-24T08:40:07;13.50;;;10.47;;
17024;SDS011;8629;42.496;25.620;2023-03-24T08:42:37;16.73;;;11.20;;
17024;SDS011;8629;42.496;25.620;2023-03-24T08:45:04;11.73;;;10.50;;
17024;SDS011;8629;42.496;25.620;2023-03-24T08:47:33;12.70;;;11.17;;
17024;SDS011;8629;42.496;25.620;2023-03-24T08:50:00;12.57;;;10.23;;
17024;SDS011;8629;42.496;25.620;2023-03-24T08:52:27;15.33;;;11.23;;
17024;SDS011;8629;42.496;25.620;2023-03-24T08:54:54;10.30;;;9.20;;
17024;SDS011;8629;42.496;25.620;2023-03-24T08:57:21;11.53;;;9.80;;
17024;SDS011;8629;42.496;25.620;2023-03-24T08:59:48;12.23;;;10.83;;
17024;SDS011;8629;42.496;25.620;2023-03-24T09:02:15;11.07;;;9.97;;
17024;SDS011;8629;42.496;25.620;2023-03-24T09:04:43;9.90;;;8.90;;
17024;SDS011;8629;42.496;25.620;2023-03-24T09:07:11;10.47;;;9.37;;
17024;SDS011;8629;42.496;25.620;2023-03-24T09:09:37;11.30;;;10.20;;
17024;SDS011;8629;42.496;25.620;2023-03-24T09:12:05;11.57;;;9.33;;
17024;SDS011;8629;42.496;25.620;2023-03-24T09:14:32;10.77;;;9.67;;
17024;SDS011;8629;42.496;25.620;2023-03-24T09:16:59;10.63;;;9.50;;
17024;SDS011;8629;42.496;25.620;2023-03-24T09:19:25;10.93;;;9.83;;
17024;SDS011;8629;42.496;25.620;2023-03-24T09:21:54;11.97;;;9.77;;
17024;SDS011;8629;42.496;25.620;2023-03-24T09:24:21;10.60;;;9.57;;
17024;SDS011;8629;42.496;25.620;2023-03-24T09:26:47;14.27;;;11.50;;
17024;SDS011;8629;42.496;25.620;2023-03-24T09:29:17;15.00;;;10.00;;
17024;SDS011;8629;42.496;25.620;2023-03-24T09:31:43;9.60;;;8.70;;
17024;SDS011;8629;42.496;25.620;2023-03-24T09:34:10;11.70;;;8.83;;
17024;SDS011;8629;42.496;25.620;2023-03-24T09:36:37;15.70;;;11.87;;
17024;SDS011;8629;42.496;25.620;2023-03-24T09:39:05;11.03;;;9.93;;
17024;SDS011;8629;42.496;25.620;2023-03-24T09:41:32;9.07;;;8.13;;
17024;SDS011;8629;42.496;25.620;2023-03-24T09:44:01;10.73;;;9.03;;
17024;SDS011;8629;42.496;25.620;2023-03-24T09:46:30;9.67;;;8.67;;
17024;SDS011;8629;42.496;25.620;2023-03-24T09:48:59;10.93;;;9.40;;
17024;SDS011;8629;42.496;25.620;2023-03-24T09:51:27;8.77;;;7.87;;
17024;SDS011;8629;42.496;25.620;2023-03-24T09:53:56;9.97;;;8.97;;
17024;SDS011;8629;42.496;25.620;2023-03-24T09:56:28;10.30;;;7.93;;
17024;SDS011;8629;42.496;25.620;2023-03-24T09:59:00;9.70;;;8.70;;
17024;SDS011;8629;42.496;25.620;2023-03-24T10:01:30;11.23;;;9.30;;
17024;SDS011;8629;42.496;25.620;2023-03-24T10:03:59;7.53;;;6.80;;
17024;SDS011;8629;42.496;25.620;2023-03-24T10:06:27;8.67;;;7.80;;
17024;SDS011;8629;42.496;25.620;2023-03-24T10:09:00;8.40;;;7.57;;
17024;SDS011;8629;42.496;25.620;2023-03-24T10:11:35;10.10;;;7.73;;
17024;SDS011;8629;42.496;25.620;2023-03-24T10:14:11;8.33;;;7.53;;
17024;SDS011;8629;42.496;25.620;2023-03-24T10:16:48;9.27;;;7.50;;
17024;SDS011;8629;42.496;25.620;2023-03-24T10:19:21;8.47;;;7.53;;
17024;SDS011;8629;42.496;25.620;2023-03-24T10:21:54;7.50;;;6.90;;
17024;SDS011;8629;42.496;25.620;2023-03-24T10:24:25;8.23;;;7.13;;
17024;SDS011;8629;42.496;25.620;2023-03-24T10:26:59;7.70;;;7.00;;
17024;SDS011;8629;42.496;25.620;2023-03-24T10:29:29;7.23;;;6.47;;
17024;SDS011;8629;42.496;25.620;2023-03-24T10:31:58;7.50;;;6.80;;
17024;SDS011;8629;42.496;25.620;2023-03-24T10:34:26;7.73;;;6.97;;
17024;SDS011;8629;42.496;25.620;2023-03-24T10:36:55;6.73;;;6.03;;
17024;SDS011;8629;42.496;25.620;2023-03-24T10:39:23;7.70;;;6.93;;
17024;SDS011;8629;42.496;25.620;2023-03-24T10:41:50;8.30;;;7.50;;
17024;SDS011;8629;42.496;25.620;2023-03-24T10:44:20;6.87;;;6.17;;
17024;SDS011;8629;42.496;25.620;2023-03-24T10:46:48;10.13;;;6.70;;
17024;SDS011;8629;42.496;25.620;2023-03-24T10:49:17;6.97;;;5.80;;
17024;SDS011;8629;42.496;25.620;2023-03-24T10:51:45;7.20;;;5.67;;
17024;SDS011;8629;42.496;25.620;2023-03-24T10:54:15;6.80;;;6.10;;
17024;SDS011;8629;42.496;25.620;2023-03-24T10:56:43;7.20;;;6.60;;
17024;SDS011;8629;42.496;25.620;2023-03-24T10:59:16;9.00;;;6.60;;
17024;SDS011;8629;42.496;25.620;2023-03-24T11:01:47;10.13;;;7.00;;
17024;SDS011;8629;42.496;25.620;2023-03-24T11:04:17;8.57;;;6.87;;
17024;SDS011;8629;42.496;25.620;2023-03-24T11:06:59;8.73;;;6.80;;
17024;SDS011;8629;42.496;25.620;2023-03-24T11:09:29;6.40;;;5.80;;
17024;SDS011;8629;42.496;25.620;2023-03-24T11:12:04;6.87;;;6.27;;
17024;SDS011;8629;42.496;25.620;2023-03-24T11:14:47;9.80;;;7.13;;
17024;SDS011;8629;42.496;25.620;2023-03-24T11:17:14;6.97;;;6.27;;
17024;SDS011;8629;42.496;25.620;2023-03-24T11:19:48;7.30;;;6.03;;
17024;SDS011;8629;42.496;25.620;2023-03-24T11:22:16;7.03;;;6.33;;
17024;SDS011;8629;42.496;25.620;2023-03-24T11:24:44;8.60;;;6.27;;
17024;SDS011;8629;42.496;25.620;2023-03-24T11:27:13;6.80;;;6.10;;
17024;SDS011;8629;42.496;25.620;2023-03-24T11:29:43;6.37;;;5.77;;
17024;SDS011;8629;42.496;25.620;2023-03-24T11:32:17;10.20;;;6.53;;
17024;SDS011;8629;42.496;25.620;2023-03-24T11:34:45;7.47;;;6.67;;
17024;SDS011;8629;42.496;25.620;2023-03-24T11:37:15;6.57;;;5.77;;
17024;SDS011;8629;42.496;25.620;2023-03-24T11:39:42;6.73;;;5.97;;
17024;SDS011;8629;42.496;25.620;2023-03-24T11:42:12;6.13;;;5.50;;
17024;SDS011;8629;42.496;25.620;2023-03-24T11:44:42;7.83;;;7.03;;
17024;SDS011;8629;42.496;25.620;2023-03-24T11:47:12;9.03;;;7.07;;
17024;SDS011;8629;42.496;25.620;2023-03-24T11:49:50;10.57;;;7.67;;
17024;SDS011;8629;42.496;25.620;2023-03-24T11:52:19;8.00;;;7.30;;
17024;SDS011;8629;42.496;25.620;2023-03-24T11:54:48;5.77;;;5.27;;
17024;SDS011;8629;42.496;25.620;2023-03-24T11:57:17;12.00;;;9.93;;
17024;SDS011;8629;42.496;25.620;2023-03-24T11:59:53;15.53;;;11.07;;
17024;SDS011;8629;42.496;25.620;2023-03-24T12:02:26;9.23;;;7.43;;
17024;SDS011;8629;42.496;25.620;2023-03-24T12:05:12;12.30;;;10.73;;
17024;SDS011;8629;42.496;25.620;2023-03-24T12:10:43;6.43;;;5.93;;
17024;SDS011;8629;42.496;25.620;2023-03-24T12:13:16;10.70;;;6.37;;
17024;SDS011;8629;42.496;25.620;2023-03-24T12:15:52;8.13;;;5.50;;
17024;SDS011;8629;42.496;25.620;2023-03-24T12:18:37;6.93;;;6.23;;
17024;SDS011;8629;42.496;25.620;2023-03-24T12:21:13;8.80;;;5.60;;
17024;SDS011;8629;42.496;25.620;2023-03-24T12:24:04;7.90;;;6.50;;
17024;SDS011;8629;42.496;25.620;2023-03-24T12:26:37;15.50;;;10.80;;
17024;SDS011;8629;42.496;25.620;2023-03-24T12:32:03;5.67;;;5.07;;
17024;SDS011;8629;42.496;25.620;2023-03-24T12:37:30;9.30;;;8.40;;
17024;SDS011;8629;42.496;25.620;2023-03-24T12:40:02;7.83;;;7.03;;
17024;SDS011;8629;42.496;25.620;2023-03-24T12:42:44;7.67;;;6.97;;
17024;SDS011;8629;42.496;25.620;2023-03-24T12:45:15;8.80;;;5.30;;
17024;SDS011;8629;42.496;25.620;2023-03-24T12:47:53;6.13;;;5.53;;
17024;SDS011;8629;42.496;25.620;2023-03-24T12:50:35;6.70;;;5.97;;
17024;SDS011;8629;42.496;25.620;2023-03-24T12:53:11;7.80;;;7.00;;
17024;SDS011;8629;42.496;25.620;2023-03-24T12:55:47;7.67;;;5.90;;
17024;SDS011;8629;42.496;25.620;2023-03-24T12:58:17;6.07;;;5.47;;
17024;SDS011;8629;42.496;25.620;2023-03-24T13:00:47;7.10;;;6.40;;
17024;SDS011;8629;42.496;25.620;2023-03-24T13:03:24;8.80;;;6.73;;
17024;SDS011;8629;42.496;25.620;2023-03-24T13:05:56;6.50;;;5.90;;
17024;SDS011;8629;42.496;25.620;2023-03-24T13:08:24;7.27;;;5.80;;
17024;SDS011;8629;42.496;25.620;2023-03-24T13:10:55;6.50;;;5.90;;
17024;SDS011;8629;42.496;25.620;2023-03-24T13:13:27;5.57;;;5.00;;
17024;SDS011;8629;42.496;25.620;2023-03-24T13:15:55;7.27;;;5.10;;
17024;SDS011;8629;42.496;25.620;2023-03-24T13:18:27;6.00;;;5.50;;
17024;SDS011;8629;42.496;25.620;2023-03-24T13:20:59;6.43;;;5.77;;
17024;SDS011;8629;42.496;25.620;2023-03-24T13:23:42;5.80;;;5.30;;
17024;SDS011;8629;42.496;25.620;2023-03-24T13:26:16;6.90;;;5.20;;
17024;SDS011;8629;42.496;25.620;2023-03-24T13:28:49;6.43;;;5.70;;
17024;SDS011;8629;42.496;25.620;2023-03-24T13:31:21;7.77;;;6.17;;
17024;SDS011;8629;42.496;25.620;2023-03-24T13:33:49;6.83;;;6.20;;
17024;SDS011;8629;42.496;25.620;2023-03-24T13:36:26;6.37;;;5.27;;
17024;SDS011;8629;42.496;25.620;2023-03-24T13:39:00;8.50;;;6.60;;
17024;SDS011;8629;42.496;25.620;2023-03-24T13:41:31;5.67;;;4.80;;
17024;SDS011;8629;42.496;25.620;2023-03-24T13:43:59;7.00;;;5.43;;
17024;SDS011;8629;42.496;25.620;2023-03-24T13:46:28;7.50;;;5.80;;
17024;SDS011;8629;42.496;25.620;2023-03-24T13:48:55;5.93;;;5.40;;
17024;SDS011;8629;42.496;25.620;2023-03-24T13:51:25;6.33;;;5.03;;
17024;SDS011;8629;42.496;25.620;2023-03-24T13:53:55;5.50;;;4.97;;
17024;SDS011;8629;42.496;25.620;2023-03-24T13:56:25;6.57;;;5.03;;
17024;SDS011;8629;42.496;25.620;2023-03-24T13:59:07;5.60;;;4.27;;
17024;SDS011;8629;42.496;25.620;2023-03-24T14:02:16;5.50;;;5.00;;
17024;SDS011;8629;42.496;25.620;2023-03-24T14:04:45;6.40;;;5.27;;
17024;SDS011;8629;42.496;25.620;2023-03-24T14:07:27;6.77;;;5.07;;
17024;SDS011;8629;42.496;25.620;2023-03-24T14:09:57;6.40;;;5.00;;
17024;SDS011;8629;42.496;25.620;2023-03-24T14:12:24;5.13;;;4.57;;
17024;SDS011;8629;42.496;25.620;2023-03-24T14:17:52;4.83;;;4.33;;
17024;SDS011;8629;42.496;25.620;2023-03-24T14:20:25;4.77;;;4.37;;
17024;SDS011;8629;42.496;25.620;2023-03-24T14:22:55;7.53;;;5.43;;
17024;SDS011;8629;42.496;25.620;2023-03-24T14:25:25;6.37;;;5.00;;
17024;SDS011;8629;42.496;25.620;2023-03-24T14:27:54;9.60;;;5.60;;
17024;SDS011;8629;42.496;25.620;2023-03-24T14:30:33;4.33;;;3.87;;
17024;SDS011;8629;42.496;25.620;2023-03-24T14:33:02;3.97;;;3.67;;
17024;SDS011;8629;42.496;25.620;2023-03-24T14:35:30;9.47;;;6.40;;
17024;SDS011;8629;42.496;25.620;2023-03-24T14:38:01;7.67;;;5.27;;
17024;SDS011;8629;42.496;25.620;2023-03-24T14:40:32;5.03;;;4.17;;
17024;SDS011;8629;42.496;25.620;2023-03-24T14:43:05;4.87;;;3.57;;
17024;SDS011;8629;42.496;25.620;2023-03-24T14:45:50;6.97;;;4.17;;
17024;SDS011;8629;42.496;25.620;2023-03-24T14:48:30;5.43;;;4.60;;
17024;SDS011;8629;42.496;25.620;2023-03-24T14:54:02;6.90;;;4.13;;
17024;SDS011;8629;42.496;25.620;2023-03-24T14:56:32;6.13;;;5.63;;
17024;SDS011;8629;42.496;25.620;2023-03-24T14:59:03;4.70;;;4.23;;
17024;SDS011;8629;42.496;25.620;2023-03-24T15:01:36;3.63;;;3.33;;
17024;SDS011;8629;42.496;25.620;2023-03-24T15:04:06;4.13;;;3.80;;
17024;SDS011;8629;42.496;25.620;2023-03-24T15:06:41;3.67;;;3.30;;
17024;SDS011;8629;42.496;25.620;2023-03-24T15:09:13;6.43;;;4.30;;
17024;SDS011;8629;42.496;25.620;2023-03-24T15:11:40;3.97;;;3.23;;
17024;SDS011;8629;42.496;25.620;2023-03-24T15:14:11;4.03;;;3.77;;
17024;SDS011;8629;42.496;25.620;2023-03-24T15:16:41;3.73;;;3.37;;
17024;SDS011;8629;42.496;25.620;2023-03-24T15:19:17;4.30;;;3.43;;
17024;SDS011;8629;42.496;25.620;2023-03-24T15:21:46;3.87;;;3.10;;